sensor_id;sensor_type;location;lat;lon;timestamp;P1;durP1;ratioP1;P2;durP2;ratioP2
17175;SDS011;8703;48.996;9.594;2023-11-18T00:01:33;10.10;;;7.90;;
17175;SDS011;8703;48.996;9.594;2023-11-18T00:04:00;10.97;;;8.17;;
17175;SDS011;8703;48.996;9.594;2023-11-18T00:06:28;14.57;;;8.33;;
17175;SDS011;8703;48.996;9.594;2023-11-18T00:08:55;10.57;;;7.73;;
17175;SDS011;8703;48.996;9.594;2023-11-18T00:11:23;14.30;;;9.00;;
17175;SDS011;8703;48.996;9.594;2023-11-18T00:13:51;11.07;;;7.63;;
17175;SDS011;8703;48.996;9.594;2023-11-18T00:16:19;16.67;;;7.63;;
17175;SDS011;8703;48.996;9.594;2023-11-18T00:18:47;10.27;;;7.90;;
17175;SDS011;8703;48.996;9.594;2023-11-18T00:21:14;13.13;;;8.93;;
17175;SDS011;8703;48.996;9.594;2023-11-18T00:23:44;12.40;;;8.03;;
17175;SDS011;8703;48.996;9.594;2023-11-18T00:26:11;15.80;;;8.73;;
17175;SDS011;8703;48.996;9.594;2023-11-18T00:28:39;28.00;;;9.23;;
17175;SDS011;8703;48.996;9.594;2023-11-18T00:31:08;14.83;;;8.97;;
17175;SDS011;8703;48.996;9.594;2023-11-18T00:33:35;13.17;;;9.83;;
17175;SDS011;8703;48.996;9.594;2023-11-18T00:36:03;13.47;;;10.00;;
17175;SDS011;8703;48.996;9.594;2023-11-18T00:38:31;13.57;;;9.70;;
17175;SDS011;8703;48.996;9.594;2023-11-18T00:40:59;12.97;;;10.13;;
17175;SDS011;8703;48.996;9.594;2023-11-18T00:43:26;14.57;;;9.83;;
17175;SDS011;8703;48.996;9.594;2023-11-18T00:45:53;14.80;;;10.07;;
17175;SDS011;8703;48.996;9.594;2023-11-18T00:48:24;15.23;;;10.27;;
17175;SDS011;8703;48.996;9.594;2023-11-18T00:50:51;12.90;;;9.43;;
17175;SDS011;8703;48.996;9.594;2023-11-18T00:53:18;14.00;;;10.10;;
17175;SDS011;8703;48.996;9.594;2023-11-18T00:55:46;14.70;;;10.27;;
17175;SDS011;8703;48.996;9.594;2023-11-18T00:58:13;16.23;;;10.07;;
17175;SDS011;8703;48.996;9.594;2023-11-18T01:00:41;14.10;;;9.97;;
17175;SDS011;8703;48.996;9.594;2023-11-18T01:03:08;14.13;;;9.87;;
17175;SDS011;8703;48.996;9.594;2023-11-18T01:05:37;13.33;;;9.50;;
17175;SDS011;8703;48.996;9.594;2023-11-18T01:08:05;15.07;;;9.43;;
17175;SDS011;8703;48.996;9.594;2023-11-18T01:10:33;15.37;;;10.20;;
17175;SDS011;8703;48.996;9.594;2023-11-18T01:13:01;15.50;;;10.00;;
17175;SDS011;8703;48.996;9.594;2023-11-18T01:15:28;14.03;;;9.90;;
17175;SDS011;8703;48.996;9.594;2023-11-18T01:17:57;14.40;;;9.97;;
17175;SDS011;8703;48.996;9.594;2023-11-18T01:20:25;16.53;;;10.37;;
17175;SDS011;8703;48.996;9.594;2023-11-18T01:22:53;15.40;;;10.30;;
17175;SDS011;8703;48.996;9.594;2023-11-18T01:25:21;15.53;;;9.93;;
17175;SDS011;8703;48.996;9.594;2023-11-18T01:27:49;16.30;;;10.10;;
17175;SDS011;8703;48.996;9.594;2023-11-18T01:30:17;16.17;;;11.20;;
17175;SDS011;8703;48.996;9.594;2023-11-18T01:32:44;15.73;;;10.27;;
17175;SDS011;8703;48.996;9.594;2023-11-18T01:35:12;15.60;;;11.17;;
17175;SDS011;8703;48.996;9.594;2023-11-18T01:37:39;16.47;;;10.00;;
17175;SDS011;8703;48.996;9.594;2023-11-18T01:40:09;15.17;;;9.97;;
17175;SDS011;8703;48.996;9.594;2023-11-18T01:42:38;14.37;;;9.53;;
17175;SDS011;8703;48.996;9.594;2023-11-18T01:45:07;14.20;;;10.20;;
17175;SDS011;8703;48.996;9.594;2023-11-18T01:47:36;14.30;;;9.80;;
17175;SDS011;8703;48.996;9.594;2023-11-18T01:50:05;16.30;;;10.67;;
17175;SDS011;8703;48.996;9.594;2023-11-18T01:52:34;18.83;;;10.90;;
17175;SDS011;8703;48.996;9.594;2023-11-18T01:55:01;18.00;;;9.73;;
17175;SDS011;8703;48.996;9.594;2023-11-18T01:57:33;13.03;;;9.57;;
17175;SDS011;8703;48.996;9.594;2023-11-18T02:00:02;15.40;;;10.63;;
17175;SDS011;8703;48.996;9.594;2023-11-18T02:02:31;16.00;;;11.03;;
17175;SDS011;8703;48.996;9.594;2023-11-18T02:05:00;15.13;;;10.60;;
17175;SDS011;8703;48.996;9.594;2023-11-18T02:07:31;16.00;;;10.80;;
17175;SDS011;8703;48.996;9.594;2023-11-18T02:09:58;16.83;;;11.67;;
17175;SDS011;8703;48.996;9.594;2023-11-18T02:12:27;16.30;;;11.13;;
17175;SDS011;8703;48.996;9.594;2023-11-18T02:15:01;16.87;;;11.07;;
17175;SDS011;8703;48.996;9.594;2023-11-18T02:17:34;16.50;;;11.57;;
17175;SDS011;8703;48.996;9.594;2023-11-18T02:20:03;16.00;;;11.10;;
17175;SDS011;8703;48.996;9.594;2023-11-18T02:22:39;16.67;;;11.30;;
17175;SDS011;8703;48.996;9.594;2023-11-18T02:25:08;17.47;;;10.77;;
17175;SDS011;8703;48.996;9.594;2023-11-18T02:27:38;18.67;;;12.30;;
17175;SDS011;8703;48.996;9.594;2023-11-18T02:30:06;16.53;;;11.27;;
17175;SDS011;8703;48.996;9.594;2023-11-18T02:32:39;23.80;;;11.77;;
17175;SDS011;8703;48.996;9.594;2023-11-18T02:35:13;17.03;;;11.13;;
17175;SDS011;8703;48.996;9.594;2023-11-18T02:37:45;16.60;;;12.03;;
17175;SDS011;8703;48.996;9.594;2023-11-18T02:40:15;16.60;;;11.00;;
17175;SDS011;8703;48.996;9.594;2023-11-18T02:42:46;16.83;;;10.80;;
17175;SDS011;8703;48.996;9.594;2023-11-18T02:45:15;16.50;;;11.17;;
17175;SDS011;8703;48.996;9.594;2023-11-18T02:47:43;21.40;;;11.97;;
17175;SDS011;8703;48.996;9.594;2023-11-18T02:50:11;17.53;;;11.70;;
17175;SDS011;8703;48.996;9.594;2023-11-18T02:52:40;18.50;;;11.23;;
17175;SDS011;8703;48.996;9.594;2023-11-18T02:55:08;20.00;;;11.77;;
17175;SDS011;8703;48.996;9.594;2023-11-18T02:57:36;18.17;;;12.23;;
17175;SDS011;8703;48.996;9.594;2023-11-18T03:00:06;18.20;;;11.97;;
17175;SDS011;8703;48.996;9.594;2023-11-18T03:02:43;18.17;;;11.90;;
17175;SDS011;8703;48.996;9.594;2023-11-18T03:05:12;16.03;;;10.70;;
17175;SDS011;8703;48.996;9.594;2023-11-18T03:07:40;16.57;;;11.23;;
17175;SDS011;8703;48.996;9.594;2023-11-18T03:10:09;18.23;;;11.07;;
17175;SDS011;8703;48.996;9.594;2023-11-18T03:12:41;20.23;;;12.50;;
17175;SDS011;8703;48.996;9.594;2023-11-18T03:15:10;42.33;;;13.33;;
17175;SDS011;8703;48.996;9.594;2023-11-18T03:17:38;20.87;;;12.43;;
17175;SDS011;8703;48.996;9.594;2023-11-18T03:20:06;21.87;;;11.93;;
17175;SDS011;8703;48.996;9.594;2023-11-18T03:22:34;19.63;;;11.33;;
17175;SDS011;8703;48.996;9.594;2023-11-18T03:25:02;15.97;;;11.00;;
17175;SDS011;8703;48.996;9.594;2023-11-18T03:27:30;20.27;;;11.97;;
17175;SDS011;8703;48.996;9.594;2023-11-18T03:29:58;21.97;;;10.83;;
17175;SDS011;8703;48.996;9.594;2023-11-18T03:32:27;15.97;;;10.77;;
17175;SDS011;8703;48.996;9.594;2023-11-18T03:34:54;23.13;;;10.73;;
17175;SDS011;8703;48.996;9.594;2023-11-18T03:37:24;15.73;;;10.43;;
17175;SDS011;8703;48.996;9.594;2023-11-18T03:39:52;16.37;;;11.03;;
17175;SDS011;8703;48.996;9.594;2023-11-18T03:42:19;18.97;;;11.40;;
17175;SDS011;8703;48.996;9.594;2023-11-18T03:44:47;19.20;;;11.67;;
17175;SDS011;8703;48.996;9.594;2023-11-18T03:47:14;15.47;;;10.53;;
17175;SDS011;8703;48.996;9.594;2023-11-18T03:49:43;17.17;;;11.10;;
17175;SDS011;8703;48.996;9.594;2023-11-18T03:52:11;21.33;;;12.00;;
17175;SDS011;8703;48.996;9.594;2023-11-18T03:54:38;19.20;;;11.80;;
17175;SDS011;8703;48.996;9.594;2023-11-18T03:57:06;21.47;;;12.10;;
17175;SDS011;8703;48.996;9.594;2023-11-18T03:59:34;18.83;;;11.67;;
17175;SDS011;8703;48.996;9.594;2023-11-18T04:02:01;18.57;;;11.00;;
17175;SDS011;8703;48.996;9.594;2023-11-18T04:04:29;20.27;;;12.27;;
17175;SDS011;8703;48.996;9.594;2023-11-18T04:06:58;19.47;;;11.73;;
17175;SDS011;8703;48.996;9.594;2023-11-18T04:09:26;29.80;;;12.57;;
17175;SDS011;8703;48.996;9.594;2023-11-18T04:11:53;17.03;;;11.37;;
17175;SDS011;8703;48.996;9.594;2023-11-18T04:14:20;17.00;;;11.20;;
17175;SDS011;8703;48.996;9.594;2023-11-18T04:16:48;25.33;;;10.77;;
17175;SDS011;8703;48.996;9.594;2023-11-18T04:19:15;22.33;;;11.43;;
17175;SDS011;8703;48.996;9.594;2023-11-18T04:21:43;17.23;;;9.90;;
17175;SDS011;8703;48.996;9.594;2023-11-18T04:24:14;16.40;;;10.57;;
17175;SDS011;8703;48.996;9.594;2023-11-18T04:26:42;26.50;;;10.90;;
17175;SDS011;8703;48.996;9.594;2023-11-18T04:29:09;16.77;;;10.10;;
17175;SDS011;8703;48.996;9.594;2023-11-18T04:31:36;15.07;;;9.43;;
17175;SDS011;8703;48.996;9.594;2023-11-18T04:34:04;18.97;;;9.27;;
17175;SDS011;8703;48.996;9.594;2023-11-18T04:36:33;18.90;;;9.67;;
17175;SDS011;8703;48.996;9.594;2023-11-18T04:39:00;16.53;;;9.10;;
17175;SDS011;8703;48.996;9.594;2023-11-18T04:41:30;17.80;;;9.63;;
17175;SDS011;8703;48.996;9.594;2023-11-18T04:43:57;15.30;;;9.30;;
17175;SDS011;8703;48.996;9.594;2023-11-18T04:46:25;17.03;;;9.80;;
17175;SDS011;8703;48.996;9.594;2023-11-18T04:48:52;19.70;;;9.50;;
17175;SDS011;8703;48.996;9.594;2023-11-18T04:51:20;14.13;;;9.27;;
17175;SDS011;8703;48.996;9.594;2023-11-18T04:53:47;14.73;;;9.47;;
17175;SDS011;8703;48.996;9.594;2023-11-18T04:56:14;16.17;;;9.93;;
17175;SDS011;8703;48.996;9.594;2023-11-18T04:58:44;13.87;;;8.83;;
17175;SDS011;8703;48.996;9.594;2023-11-18T05:01:12;15.87;;;9.80;;
17175;SDS011;8703;48.996;9.594;2023-11-18T05:03:40;17.93;;;9.20;;
17175;SDS011;8703;48.996;9.594;2023-11-18T05:06:07;20.07;;;9.07;;
17175;SDS011;8703;48.996;9.594;2023-11-18T05:08:34;14.37;;;9.40;;
17175;SDS011;8703;48.996;9.594;2023-11-18T05:11:02;18.43;;;8.63;;
17175;SDS011;8703;48.996;9.594;2023-11-18T05:13:30;20.73;;;9.43;;
17175;SDS011;8703;48.996;9.594;2023-11-18T05:16:00;12.33;;;8.10;;
17175;SDS011;8703;48.996;9.594;2023-11-18T05:18:28;22.23;;;8.70;;
17175;SDS011;8703;48.996;9.594;2023-11-18T05:21:00;13.47;;;7.73;;
17175;SDS011;8703;48.996;9.594;2023-11-18T05:23:30;13.40;;;8.37;;
17175;SDS011;8703;48.996;9.594;2023-11-18T05:25:57;21.77;;;8.50;;
17175;SDS011;8703;48.996;9.594;2023-11-18T05:28:25;16.50;;;8.73;;
17175;SDS011;8703;48.996;9.594;2023-11-18T05:30:52;12.87;;;8.40;;
17175;SDS011;8703;48.996;9.594;2023-11-18T05:33:24;13.63;;;8.10;;
17175;SDS011;8703;48.996;9.594;2023-11-18T05:35:53;16.93;;;8.90;;
17175;SDS011;8703;48.996;9.594;2023-11-18T05:38:20;11.50;;;7.43;;
17175;SDS011;8703;48.996;9.594;2023-11-18T05:40:48;11.87;;;7.53;;
17175;SDS011;8703;48.996;9.594;2023-11-18T05:43:21;17.37;;;9.83;;
17175;SDS011;8703;48.996;9.594;2023-11-18T05:45:50;20.33;;;9.17;;
17175;SDS011;8703;48.996;9.594;2023-11-18T05:48:33;17.03;;;8.50;;
17175;SDS011;8703;48.996;9.594;2023-11-18T05:51:00;17.00;;;8.87;;
17175;SDS011;8703;48.996;9.594;2023-11-18T05:53:28;17.53;;;8.90;;
17175;SDS011;8703;48.996;9.594;2023-11-18T05:55:55;16.57;;;8.70;;
17175;SDS011;8703;48.996;9.594;2023-11-18T05:58:23;19.50;;;9.63;;
17175;SDS011;8703;48.996;9.594;2023-11-18T06:00:50;18.10;;;9.60;;
17175;SDS011;8703;48.996;9.594;2023-11-18T06:03:18;18.87;;;10.17;;
17175;SDS011;8703;48.996;9.594;2023-11-18T06:05:47;25.13;;;9.80;;
17175;SDS011;8703;48.996;9.594;2023-11-18T06:08:14;22.87;;;9.17;;
17175;SDS011;8703;48.996;9.594;2023-11-18T06:10:42;14.87;;;8.80;;
17175;SDS011;8703;48.996;9.594;2023-11-18T06:13:11;21.33;;;9.90;;
17175;SDS011;8703;48.996;9.594;2023-11-18T06:19:09;28.37;;;11.37;;
17175;SDS011;8703;48.996;9.594;2023-11-18T06:21:38;17.43;;;9.73;;
17175;SDS011;8703;48.996;9.594;2023-11-18T06:24:06;20.27;;;10.00;;
17175;SDS011;8703;48.996;9.594;2023-11-18T06:26:37;20.77;;;10.37;;
17175;SDS011;8703;48.996;9.594;2023-11-18T06:29:05;23.17;;;9.83;;
17175;SDS011;8703;48.996;9.594;2023-11-18T06:31:32;19.87;;;10.27;;
17175;SDS011;8703;48.996;9.594;2023-11-18T06:33:59;33.03;;;9.83;;
17175;SDS011;8703;48.996;9.594;2023-11-18T06:36:28;17.07;;;9.67;;
17175;SDS011;8703;48.996;9.594;2023-11-18T06:38:57;17.87;;;8.90;;
17175;SDS011;8703;48.996;9.594;2023-11-18T06:41:25;33.23;;;8.97;;
17175;SDS011;8703;48.996;9.594;2023-11-18T06:43:58;21.13;;;8.67;;
17175;SDS011;8703;48.996;9.594;2023-11-18T06:46:34;20.67;;;8.60;;
17175;SDS011;8703;48.996;9.594;2023-11-18T06:49:04;15.43;;;7.90;;
17175;SDS011;8703;48.996;9.594;2023-11-18T06:51:33;21.80;;;9.43;;
17175;SDS011;8703;48.996;9.594;2023-11-18T06:54:04;17.30;;;8.67;;
17175;SDS011;8703;48.996;9.594;2023-11-18T06:56:35;14.37;;;8.50;;
17175;SDS011;8703;48.996;9.594;2023-11-18T06:59:04;14.37;;;8.23;;
17175;SDS011;8703;48.996;9.594;2023-11-18T07:01:32;16.03;;;8.53;;
17175;SDS011;8703;48.996;9.594;2023-11-18T07:04:00;28.20;;;9.50;;
17175;SDS011;8703;48.996;9.594;2023-11-18T07:06:28;19.03;;;9.30;;
17175;SDS011;8703;48.996;9.594;2023-11-18T07:08:56;14.47;;;8.30;;
17175;SDS011;8703;48.996;9.594;2023-11-18T07:11:51;14.37;;;7.70;;
17175;SDS011;8703;48.996;9.594;2023-11-18T07:17:38;19.77;;;9.50;;
17175;SDS011;8703;48.996;9.594;2023-11-18T07:20:06;28.87;;;14.37;;
17175;SDS011;8703;48.996;9.594;2023-11-18T07:22:36;30.23;;;12.77;;
17175;SDS011;8703;48.996;9.594;2023-11-18T07:25:04;16.90;;;9.87;;
17175;SDS011;8703;48.996;9.594;2023-11-18T07:27:35;22.20;;;11.90;;
17175;SDS011;8703;48.996;9.594;2023-11-18T07:30:03;33.73;;;13.90;;
17175;SDS011;8703;48.996;9.594;2023-11-18T07:32:35;21.87;;;11.67;;
17175;SDS011;8703;48.996;9.594;2023-11-18T07:35:03;23.43;;;9.27;;
17175;SDS011;8703;48.996;9.594;2023-11-18T07:37:34;17.20;;;9.20;;
17175;SDS011;8703;48.996;9.594;2023-11-18T07:40:02;23.23;;;9.43;;
17175;SDS011;8703;48.996;9.594;2023-11-18T07:42:30;18.80;;;10.03;;
17175;SDS011;8703;48.996;9.594;2023-11-18T07:45:01;16.83;;;9.37;;
17175;SDS011;8703;48.996;9.594;2023-11-18T07:47:29;13.37;;;7.97;;
17175;SDS011;8703;48.996;9.594;2023-11-18T07:49:57;11.57;;;7.00;;
17175;SDS011;8703;48.996;9.594;2023-11-18T07:52:26;16.97;;;8.90;;
17175;SDS011;8703;48.996;9.594;2023-11-18T07:54:54;17.23;;;9.27;;
17175;SDS011;8703;48.996;9.594;2023-11-18T07:57:22;14.43;;;8.53;;
17175;SDS011;8703;48.996;9.594;2023-11-18T07:59:49;15.50;;;8.90;;
17175;SDS011;8703;48.996;9.594;2023-11-18T08:04:49;12.53;;;7.47;;
17175;SDS011;8703;48.996;9.594;2023-11-18T08:07:17;12.60;;;7.30;;
17175;SDS011;8703;48.996;9.594;2023-11-18T08:09:44;11.63;;;7.90;;
17175;SDS011;8703;48.996;9.594;2023-11-18T08:12:12;12.83;;;8.37;;
17175;SDS011;8703;48.996;9.594;2023-11-18T08:14:39;11.27;;;7.47;;
17175;SDS011;8703;48.996;9.594;2023-11-18T08:17:08;10.67;;;6.93;;
17175;SDS011;8703;48.996;9.594;2023-11-18T08:19:35;10.87;;;7.67;;
17175;SDS011;8703;48.996;9.594;2023-11-18T08:22:04;14.47;;;7.50;;
17175;SDS011;8703;48.996;9.594;2023-11-18T08:24:34;8.70;;;6.63;;
17175;SDS011;8703;48.996;9.594;2023-11-18T08:27:02;14.33;;;7.43;;
17175;SDS011;8703;48.996;9.594;2023-11-18T08:29:32;8.73;;;6.50;;
17175;SDS011;8703;48.996;9.594;2023-11-18T08:42:19;9.70;;;5.83;;
17175;SDS011;8703;48.996;9.594;2023-11-18T08:44:47;7.33;;;5.03;;
17175;SDS011;8703;48.996;9.594;2023-11-18T08:47:14;7.87;;;5.00;;
17175;SDS011;8703;48.996;9.594;2023-11-18T08:49:42;14.53;;;5.17;;
17175;SDS011;8703;48.996;9.594;2023-11-18T08:52:11;16.23;;;5.63;;
17175;SDS011;8703;48.996;9.594;2023-11-18T08:54:38;6.13;;;4.23;;
17175;SDS011;8703;48.996;9.594;2023-11-18T08:57:28;5.50;;;4.90;;
17175;SDS011;8703;48.996;9.594;2023-11-18T09:00:13;4.23;;;2.87;;
17175;SDS011;8703;48.996;9.594;2023-11-18T09:03:04;7.23;;;3.60;;
17175;SDS011;8703;48.996;9.594;2023-11-18T09:05:32;4.30;;;3.00;;
17175;SDS011;8703;48.996;9.594;2023-11-18T09:08:03;4.87;;;2.80;;
17175;SDS011;8703;48.996;9.594;2023-11-18T09:10:31;6.53;;;2.60;;
17175;SDS011;8703;48.996;9.594;2023-11-18T09:13:00;3.30;;;2.00;;
17175;SDS011;8703;48.996;9.594;2023-11-18T09:15:28;2.93;;;2.10;;
17175;SDS011;8703;48.996;9.594;2023-11-18T09:17:56;3.30;;;2.20;;
17175;SDS011;8703;48.996;9.594;2023-11-18T09:20:24;4.03;;;2.30;;
17175;SDS011;8703;48.996;9.594;2023-11-18T09:22:52;5.77;;;2.43;;
17175;SDS011;8703;48.996;9.594;2023-11-18T09:25:20;3.77;;;1.90;;
17175;SDS011;8703;48.996;9.594;2023-11-18T09:27:48;2.53;;;2.30;;
17175;SDS011;8703;48.996;9.594;2023-11-18T09:30:17;4.20;;;2.10;;
17175;SDS011;8703;48.996;9.594;2023-11-18T09:32:44;2.37;;;1.87;;
17175;SDS011;8703;48.996;9.594;2023-11-18T09:35:12;5.80;;;2.40;;
17175;SDS011;8703;48.996;9.594;2023-11-18T09:37:40;5.53;;;1.97;;
17175;SDS011;8703;48.996;9.594;2023-11-18T09:40:08;3.20;;;1.93;;
17175;SDS011;8703;48.996;9.594;2023-11-18T09:42:39;5.43;;;2.13;;
17175;SDS011;8703;48.996;9.594;2023-11-18T09:45:08;2.43;;;2.00;;
17175;SDS011;8703;48.996;9.594;2023-11-18T09:47:42;4.03;;;2.20;;
17175;SDS011;8703;48.996;9.594;2023-11-18T09:50:12;2.97;;;2.00;;
17175;SDS011;8703;48.996;9.594;2023-11-18T09:52:46;2.80;;;2.17;;
17175;SDS011;8703;48.996;9.594;2023-11-18T09:55:21;3.00;;;1.90;;
17175;SDS011;8703;48.996;9.594;2023-11-18T09:57:55;2.33;;;1.90;;
17175;SDS011;8703;48.996;9.594;2023-11-18T10:00:29;4.80;;;2.07;;
17175;SDS011;8703;48.996;9.594;2023-11-18T10:02:59;5.00;;;2.00;;
17175;SDS011;8703;48.996;9.594;2023-11-18T10:05:26;6.93;;;2.03;;
17175;SDS011;8703;48.996;9.594;2023-11-18T10:07:55;5.23;;;2.20;;
17175;SDS011;8703;48.996;9.594;2023-11-18T10:10:24;2.77;;;2.10;;
17175;SDS011;8703;48.996;9.594;2023-11-18T10:13:01;4.20;;;2.10;;
17175;SDS011;8703;48.996;9.594;2023-11-18T10:15:33;5.30;;;2.20;;
17175;SDS011;8703;48.996;9.594;2023-11-18T10:18:02;4.00;;;2.20;;
17175;SDS011;8703;48.996;9.594;2023-11-18T10:23:19;3.87;;;1.90;;
17175;SDS011;8703;48.996;9.594;2023-11-18T10:26:17;7.40;;;1.90;;
17175;SDS011;8703;48.996;9.594;2023-11-18T10:28:53;10.90;;;4.60;;
17175;SDS011;8703;48.996;9.594;2023-11-18T10:52:31;4.37;;;1.73;;
17175;SDS011;8703;48.996;9.594;2023-11-18T10:55:18;3.63;;;1.50;;
17175;SDS011;8703;48.996;9.594;2023-11-18T11:00:51;8.37;;;1.67;;
17175;SDS011;8703;48.996;9.594;2023-11-18T11:03:25;2.70;;;1.97;;
17175;SDS011;8703;48.996;9.594;2023-11-18T11:06:02;8.70;;;2.87;;
17175;SDS011;8703;48.996;9.594;2023-11-18T11:08:44;7.37;;;1.87;;
17175;SDS011;8703;48.996;9.594;2023-11-18T11:11:13;4.40;;;2.10;;
17175;SDS011;8703;48.996;9.594;2023-11-18T11:13:42;7.80;;;1.80;;
17175;SDS011;8703;48.996;9.594;2023-11-18T11:16:12;3.37;;;1.60;;
17175;SDS011;8703;48.996;9.594;2023-11-18T11:18:44;17.10;;;2.00;;
17175;SDS011;8703;48.996;9.594;2023-11-18T11:21:19;5.03;;;2.87;;
17175;SDS011;8703;48.996;9.594;2023-11-18T11:23:55;7.73;;;2.40;;
17175;SDS011;8703;48.996;9.594;2023-11-18T11:26:34;12.43;;;2.40;;
17175;SDS011;8703;48.996;9.594;2023-11-18T11:29:12;5.30;;;4.80;;
17175;SDS011;8703;48.996;9.594;2023-11-18T11:31:46;7.80;;;3.97;;
17175;SDS011;8703;48.996;9.594;2023-11-18T11:34:18;3.03;;;1.70;;
17175;SDS011;8703;48.996;9.594;2023-11-18T11:36:48;3.67;;;2.30;;
17175;SDS011;8703;48.996;9.594;2023-11-18T11:39:19;4.97;;;1.73;;
17175;SDS011;8703;48.996;9.594;2023-11-18T11:41:51;2.40;;;1.50;;
17175;SDS011;8703;48.996;9.594;2023-11-18T11:44:19;5.27;;;1.60;;
17175;SDS011;8703;48.996;9.594;2023-11-18T11:46:53;8.53;;;2.30;;
17175;SDS011;8703;48.996;9.594;2023-11-18T11:49:21;4.90;;;1.67;;
17175;SDS011;8703;48.996;9.594;2023-11-18T11:51:55;23.80;;;2.30;;
17175;SDS011;8703;48.996;9.594;2023-11-18T11:54:31;4.93;;;1.30;;
17175;SDS011;8703;48.996;9.594;2023-11-18T11:57:03;4.67;;;1.50;;
17175;SDS011;8703;48.996;9.594;2023-11-18T12:20:39;49.73;;;29.53;;
17175;SDS011;8703;48.996;9.594;2023-11-18T12:23:12;3.97;;;3.10;;
17175;SDS011;8703;48.996;9.594;2023-11-18T12:25:40;4.07;;;1.53;;
17175;SDS011;8703;48.996;9.594;2023-11-18T12:28:08;5.73;;;1.73;;
17175;SDS011;8703;48.996;9.594;2023-11-18T12:30:39;9.53;;;2.20;;
17175;SDS011;8703;48.996;9.594;2023-11-18T12:33:17;1.50;;;1.20;;
17175;SDS011;8703;48.996;9.594;2023-11-18T12:39:11;11.43;;;6.83;;
17175;SDS011;8703;48.996;9.594;2023-11-18T12:42:01;2.50;;;1.60;;
17175;SDS011;8703;48.996;9.594;2023-11-18T12:44:37;3.70;;;1.23;;
17175;SDS011;8703;48.996;9.594;2023-11-18T12:47:07;6.40;;;1.20;;
17175;SDS011;8703;48.996;9.594;2023-11-18T12:49:43;2.00;;;1.10;;
17175;SDS011;8703;48.996;9.594;2023-11-18T12:52:15;3.27;;;1.40;;
17175;SDS011;8703;48.996;9.594;2023-11-18T12:54:45;1.57;;;1.00;;
17175;SDS011;8703;48.996;9.594;2023-11-18T12:57:16;13.23;;;1.50;;
17175;SDS011;8703;48.996;9.594;2023-11-18T12:59:44;3.10;;;1.20;;
17175;SDS011;8703;48.996;9.594;2023-11-18T13:02:12;3.30;;;2.20;;
17175;SDS011;8703;48.996;9.594;2023-11-18T13:04:44;2.00;;;1.30;;
17175;SDS011;8703;48.996;9.594;2023-11-18T13:07:14;2.13;;;1.13;;
17175;SDS011;8703;48.996;9.594;2023-11-18T13:09:42;7.17;;;1.73;;
17175;SDS011;8703;48.996;9.594;2023-11-18T13:12:11;2.90;;;1.10;;
17175;SDS011;8703;48.996;9.594;2023-11-18T13:14:42;2.47;;;1.03;;
17175;SDS011;8703;48.996;9.594;2023-11-18T13:17:12;2.03;;;1.03;;
17175;SDS011;8703;48.996;9.594;2023-11-18T13:19:41;2.13;;;0.90;;
17175;SDS011;8703;48.996;9.594;2023-11-18T13:22:12;3.57;;;1.10;;
17175;SDS011;8703;48.996;9.594;2023-11-18T13:24:51;2.47;;;1.20;;
17175;SDS011;8703;48.996;9.594;2023-11-18T13:27:18;4.30;;;1.17;;
17175;SDS011;8703;48.996;9.594;2023-11-18T13:29:48;2.30;;;1.73;;
17175;SDS011;8703;48.996;9.594;2023-11-18T13:32:18;2.20;;;1.10;;
17175;SDS011;8703;48.996;9.594;2023-11-18T13:34:48;1.70;;;1.30;;
17175;SDS011;8703;48.996;9.594;2023-11-18T13:37:16;1.83;;;1.10;;
17175;SDS011;8703;48.996;9.594;2023-11-18T13:39:54;2.07;;;1.10;;
17175;SDS011;8703;48.996;9.594;2023-11-18T13:42:21;5.07;;;1.60;;
17175;SDS011;8703;48.996;9.594;2023-11-18T13:44:51;3.20;;;1.30;;
17175;SDS011;8703;48.996;9.594;2023-11-18T13:47:19;2.53;;;1.10;;
17175;SDS011;8703;48.996;9.594;2023-11-18T13:49:49;6.87;;;1.17;;
17175;SDS011;8703;48.996;9.594;2023-11-18T13:52:17;5.33;;;1.40;;
17175;SDS011;8703;48.996;9.594;2023-11-18T13:54:46;4.73;;;3.13;;
17175;SDS011;8703;48.996;9.594;2023-11-18T13:57:19;5.17;;;2.60;;
17175;SDS011;8703;48.996;9.594;2023-11-18T13:59:47;3.67;;;2.20;;
17175;SDS011;8703;48.996;9.594;2023-11-18T14:02:15;7.03;;;2.40;;
17175;SDS011;8703;48.996;9.594;2023-11-18T14:04:43;3.33;;;1.50;;
17175;SDS011;8703;48.996;9.594;2023-11-18T14:07:14;4.77;;;1.00;;
17175;SDS011;8703;48.996;9.594;2023-11-18T14:09:42;5.43;;;1.40;;
17175;SDS011;8703;48.996;9.594;2023-11-18T14:12:10;3.83;;;1.00;;
17175;SDS011;8703;48.996;9.594;2023-11-18T14:14:40;3.27;;;1.90;;
17175;SDS011;8703;48.996;9.594;2023-11-18T14:17:08;2.53;;;1.60;;
17175;SDS011;8703;48.996;9.594;2023-11-18T14:19:36;4.37;;;1.90;;
17175;SDS011;8703;48.996;9.594;2023-11-18T14:22:03;1.93;;;1.50;;
17175;SDS011;8703;48.996;9.594;2023-11-18T14:24:32;2.17;;;1.37;;
17175;SDS011;8703;48.996;9.594;2023-11-18T14:26:59;4.87;;;1.43;;
17175;SDS011;8703;48.996;9.594;2023-11-18T14:29:27;2.93;;;1.80;;
17175;SDS011;8703;48.996;9.594;2023-11-18T14:31:56;3.30;;;2.00;;
17175;SDS011;8703;48.996;9.594;2023-11-18T14:34:23;5.10;;;1.33;;
17175;SDS011;8703;48.996;9.594;2023-11-18T14:36:52;5.43;;;1.77;;
17175;SDS011;8703;48.996;9.594;2023-11-18T14:39:19;4.77;;;2.13;;
17175;SDS011;8703;48.996;9.594;2023-11-18T14:41:47;4.13;;;1.50;;
17175;SDS011;8703;48.996;9.594;2023-11-18T14:44:15;4.83;;;1.40;;
17175;SDS011;8703;48.996;9.594;2023-11-18T14:46:45;2.93;;;0.90;;
17175;SDS011;8703;48.996;9.594;2023-11-18T14:49:14;5.23;;;1.30;;
17175;SDS011;8703;48.996;9.594;2023-11-18T14:51:43;4.13;;;1.50;;
17175;SDS011;8703;48.996;9.594;2023-11-18T14:54:10;3.07;;;1.50;;
17175;SDS011;8703;48.996;9.594;2023-11-18T14:56:37;4.20;;;1.47;;
17175;SDS011;8703;48.996;9.594;2023-11-18T14:59:05;5.33;;;1.90;;
17175;SDS011;8703;48.996;9.594;2023-11-18T15:01:33;6.43;;;1.70;;
17175;SDS011;8703;48.996;9.594;2023-11-18T15:04:00;3.83;;;1.50;;
17175;SDS011;8703;48.996;9.594;2023-11-18T15:06:31;3.07;;;1.63;;
17175;SDS011;8703;48.996;9.594;2023-11-18T15:08:59;2.80;;;1.30;;
17175;SDS011;8703;48.996;9.594;2023-11-18T15:11:28;2.43;;;1.70;;
17175;SDS011;8703;48.996;9.594;2023-11-18T15:13:58;5.37;;;2.30;;
17175;SDS011;8703;48.996;9.594;2023-11-18T15:16:26;6.73;;;1.83;;
17175;SDS011;8703;48.996;9.594;2023-11-18T15:18:53;4.73;;;1.60;;
17175;SDS011;8703;48.996;9.594;2023-11-18T15:21:21;6.70;;;1.50;;
17175;SDS011;8703;48.996;9.594;2023-11-18T15:23:50;3.63;;;1.20;;
17175;SDS011;8703;48.996;9.594;2023-11-18T15:26:17;5.30;;;1.67;;
17175;SDS011;8703;48.996;9.594;2023-11-18T15:28:45;7.97;;;1.40;;
17175;SDS011;8703;48.996;9.594;2023-11-18T15:31:13;5.43;;;1.70;;
17175;SDS011;8703;48.996;9.594;2023-11-18T15:33:40;7.17;;;1.60;;
17175;SDS011;8703;48.996;9.594;2023-11-18T15:36:10;2.40;;;1.50;;
17175;SDS011;8703;48.996;9.594;2023-11-18T15:38:38;3.87;;;2.00;;
17175;SDS011;8703;48.996;9.594;2023-11-18T15:41:07;2.73;;;1.43;;
17175;SDS011;8703;48.996;9.594;2023-11-18T15:43:36;4.63;;;1.33;;
17175;SDS011;8703;48.996;9.594;2023-11-18T15:46:04;3.60;;;1.40;;
17175;SDS011;8703;48.996;9.594;2023-11-18T15:48:31;3.53;;;2.37;;
17175;SDS011;8703;48.996;9.594;2023-11-18T15:50:59;2.30;;;1.30;;
17175;SDS011;8703;48.996;9.594;2023-11-18T15:53:27;4.70;;;1.57;;
17175;SDS011;8703;48.996;9.594;2023-11-18T15:55:55;2.80;;;1.57;;
17175;SDS011;8703;48.996;9.594;2023-11-18T16:01:33;4.80;;;1.50;;
17175;SDS011;8703;48.996;9.594;2023-11-18T16:04:00;3.17;;;1.53;;
17175;SDS011;8703;48.996;9.594;2023-11-18T16:06:28;2.77;;;1.63;;
17175;SDS011;8703;48.996;9.594;2023-11-18T16:08:56;6.97;;;1.70;;
17175;SDS011;8703;48.996;9.594;2023-11-18T16:11:23;5.13;;;2.70;;
17175;SDS011;8703;48.996;9.594;2023-11-18T16:13:51;4.83;;;2.30;;
17175;SDS011;8703;48.996;9.594;2023-11-18T16:16:20;9.83;;;2.50;;
17175;SDS011;8703;48.996;9.594;2023-11-18T16:18:51;3.67;;;1.73;;